sensor_id;sensor_type;location;lat;lon;timestamp;P1;durP1;ratioP1;P2;durP2;ratioP2
21868;SDS011;11099;41.564;23.296;2023-04-24T00:02:22;8.10;;;6.18;;
21868;SDS011;11099;41.564;23.296;2023-04-24T00:04:49;5.90;;;5.40;;
21868;SDS011;11099;41.564;23.296;2023-04-24T00:07:14;8.63;;;7.72;;
21868;SDS011;11099;41.564;23.296;2023-04-24T00:09:42;9.57;;;6.90;;
21868;SDS011;11099;41.564;23.296;2023-04-24T00:12:08;8.93;;;7.38;;
21868;SDS011;11099;41.564;23.296;2023-04-24T00:14:34;8.30;;;7.50;;
21868;SDS011;11099;41.564;23.296;2023-04-24T00:17:00;8.77;;;7.50;;
21868;SDS011;11099;41.564;23.296;2023-04-24T00:19:27;9.35;;;7.28;;
21868;SDS011;11099;41.564;23.296;2023-04-24T00:21:53;9.95;;;7.93;;
21868;SDS011;11099;41.564;23.296;2023-04-24T00:24:19;10.55;;;7.38;;
21868;SDS011;11099;41.564;23.296;2023-04-24T00:26:45;8.50;;;7.70;;
21868;SDS011;11099;41.564;23.296;2023-04-24T00:29:11;8.68;;;7.45;;
21868;SDS011;11099;41.564;23.296;2023-04-24T00:31:36;8.63;;;6.93;;
21868;SDS011;11099;41.564;23.296;2023-04-24T00:34:02;8.63;;;6.80;;
21868;SDS011;11099;41.564;23.296;2023-04-24T00:36:28;7.88;;;7.18;;
21868;SDS011;11099;41.564;23.296;2023-04-24T00:38:55;8.18;;;7.38;;
21868;SDS011;11099;41.564;23.296;2023-04-24T00:41:21;11.85;;;7.55;;
21868;SDS011;11099;41.564;23.296;2023-04-24T00:43:47;7.93;;;7.13;;
21868;SDS011;11099;41.564;23.296;2023-04-24T00:46:14;7.72;;;6.93;;
21868;SDS011;11099;41.564;23.296;2023-04-24T00:48:39;8.35;;;6.50;;
21868;SDS011;11099;41.564;23.296;2023-04-24T00:51:05;8.88;;;7.20;;
21868;SDS011;11099;41.564;23.296;2023-04-24T00:53:31;7.53;;;6.60;;
21868;SDS011;11099;41.564;23.296;2023-04-24T00:55:57;10.43;;;7.50;;
21868;SDS011;11099;41.564;23.296;2023-04-24T00:58:23;8.60;;;7.13;;
21868;SDS011;11099;41.564;23.296;2023-04-24T01:00:49;8.18;;;6.68;;
21868;SDS011;11099;41.564;23.296;2023-04-24T01:03:19;8.05;;;6.88;;
21868;SDS011;11099;41.564;23.296;2023-04-24T01:05:46;7.13;;;6.22;;
21868;SDS011;11099;41.564;23.296;2023-04-24T01:08:13;6.65;;;6.05;;
21868;SDS011;11099;41.564;23.296;2023-04-24T01:10:40;7.93;;;6.70;;
21868;SDS011;11099;41.564;23.296;2023-04-24T01:13:09;8.93;;;6.47;;
21868;SDS011;11099;41.564;23.296;2023-04-24T01:15:35;11.35;;;6.93;;
21868;SDS011;11099;41.564;23.296;2023-04-24T01:18:01;7.82;;;7.10;;
21868;SDS011;11099;41.564;23.296;2023-04-24T01:20:27;6.70;;;6.10;;
21868;SDS011;11099;41.564;23.296;2023-04-24T01:22:56;9.02;;;6.57;;
21868;SDS011;11099;41.564;23.296;2023-04-24T01:25:22;7.45;;;6.75;;
21868;SDS011;11099;41.564;23.296;2023-04-24T01:27:49;8.32;;;6.90;;
21868;SDS011;11099;41.564;23.296;2023-04-24T01:30:16;8.52;;;6.85;;
21868;SDS011;11099;41.564;23.296;2023-04-24T01:32:42;7.38;;;6.50;;
21868;SDS011;11099;41.564;23.296;2023-04-24T01:35:10;8.90;;;6.15;;
21868;SDS011;11099;41.564;23.296;2023-04-24T01:37:36;8.00;;;6.50;;
21868;SDS011;11099;41.564;23.296;2023-04-24T01:40:05;7.45;;;6.65;;
21868;SDS011;11099;41.564;23.296;2023-04-24T01:42:31;8.95;;;6.70;;
21868;SDS011;11099;41.564;23.296;2023-04-24T01:44:57;7.60;;;6.80;;
21868;SDS011;11099;41.564;23.296;2023-04-24T01:47:24;7.32;;;6.63;;
21868;SDS011;11099;41.564;23.296;2023-04-24T01:49:50;11.35;;;6.72;;
21868;SDS011;11099;41.564;23.296;2023-04-24T01:52:16;7.55;;;6.80;;
21868;SDS011;11099;41.564;23.296;2023-04-24T01:54:42;8.73;;;6.95;;
21868;SDS011;11099;41.564;23.296;2023-04-24T01:57:08;11.73;;;9.60;;
21868;SDS011;11099;41.564;23.296;2023-04-24T01:59:33;9.40;;;8.43;;
21868;SDS011;11099;41.564;23.296;2023-04-24T02:01:59;11.57;;;7.82;;
21868;SDS011;11099;41.564;23.296;2023-04-24T02:04:25;11.30;;;8.25;;
21868;SDS011;11099;41.564;23.296;2023-04-24T02:06:50;8.00;;;7.20;;
21868;SDS011;11099;41.564;23.296;2023-04-24T02:09:16;10.65;;;6.65;;
21868;SDS011;11099;41.564;23.296;2023-04-24T02:11:41;10.70;;;7.15;;
21868;SDS011;11099;41.564;23.296;2023-04-24T02:14:07;8.18;;;7.32;;
21868;SDS011;11099;41.564;23.296;2023-04-24T02:16:32;7.60;;;6.45;;
21868;SDS011;11099;41.564;23.296;2023-04-24T02:18:58;7.93;;;6.65;;
21868;SDS011;11099;41.564;23.296;2023-04-24T02:21:24;8.00;;;6.68;;
21868;SDS011;11099;41.564;23.296;2023-04-24T02:23:50;7.55;;;6.25;;
21868;SDS011;11099;41.564;23.296;2023-04-24T02:26:15;10.23;;;6.45;;
21868;SDS011;11099;41.564;23.296;2023-04-24T02:28:41;11.98;;;6.90;;
21868;SDS011;11099;41.564;23.296;2023-04-24T02:31:06;9.02;;;7.28;;
21868;SDS011;11099;41.564;23.296;2023-04-24T02:33:32;7.55;;;6.78;;
21868;SDS011;11099;41.564;23.296;2023-04-24T02:35:58;11.07;;;7.22;;
21868;SDS011;11099;41.564;23.296;2023-04-24T02:38:23;8.95;;;6.68;;
21868;SDS011;11099;41.564;23.296;2023-04-24T02:40:48;9.90;;;6.80;;
21868;SDS011;11099;41.564;23.296;2023-04-24T02:43:14;9.15;;;7.00;;
21868;SDS011;11099;41.564;23.296;2023-04-24T02:45:39;6.70;;;5.95;;
21868;SDS011;11099;41.564;23.296;2023-04-24T02:48:05;8.75;;;7.35;;
21868;SDS011;11099;41.564;23.296;2023-04-24T02:50:30;8.55;;;7.65;;
21868;SDS011;11099;41.564;23.296;2023-04-24T02:52:56;10.00;;;7.05;;
21868;SDS011;11099;41.564;23.296;2023-04-24T02:55:22;10.45;;;6.97;;
21868;SDS011;11099;41.564;23.296;2023-04-24T02:57:47;7.88;;;7.10;;
21868;SDS011;11099;41.564;23.296;2023-04-24T03:00:13;8.10;;;7.30;;
21868;SDS011;11099;41.564;23.296;2023-04-24T03:02:39;8.25;;;7.50;;
21868;SDS011;11099;41.564;23.296;2023-04-24T03:05:04;10.38;;;7.53;;
21868;SDS011;11099;41.564;23.296;2023-04-24T03:07:30;7.57;;;6.78;;
21868;SDS011;11099;41.564;23.296;2023-04-24T03:09:56;7.78;;;7.07;;
21868;SDS011;11099;41.564;23.296;2023-04-24T03:12:23;11.15;;;7.70;;
21868;SDS011;11099;41.564;23.296;2023-04-24T03:14:49;7.93;;;7.13;;
21868;SDS011;11099;41.564;23.296;2023-04-24T03:17:14;9.23;;;7.28;;
21868;SDS011;11099;41.564;23.296;2023-04-24T03:19:40;73.40;;;43.45;;
21868;SDS011;11099;41.564;23.296;2023-04-24T03:22:05;177.18;;;102.22;;
21868;SDS011;11099;41.564;23.296;2023-04-24T03:24:31;187.10;;;105.15;;
21868;SDS011;11099;41.564;23.296;2023-04-24T03:26:56;277.38;;;131.13;;
21868;SDS011;11099;41.564;23.296;2023-04-24T03:29:22;195.75;;;98.35;;
21868;SDS011;11099;41.564;23.296;2023-04-24T03:31:48;92.90;;;45.63;;
21868;SDS011;11099;41.564;23.296;2023-04-24T03:34:13;48.50;;;28.38;;
21868;SDS011;11099;41.564;23.296;2023-04-24T03:36:39;34.75;;;20.10;;
21868;SDS011;11099;41.564;23.296;2023-04-24T03:39:04;21.65;;;13.68;;
21868;SDS011;11099;41.564;23.296;2023-04-24T03:41:30;12.68;;;9.85;;
21868;SDS011;11099;41.564;23.296;2023-04-24T03:43:56;11.30;;;9.85;;
21868;SDS011;11099;41.564;23.296;2023-04-24T03:46:21;10.88;;;9.57;;
21868;SDS011;11099;41.564;23.296;2023-04-24T03:48:47;17.40;;;11.68;;
21868;SDS011;11099;41.564;23.296;2023-04-24T03:51:12;10.55;;;9.45;;
21868;SDS011;11099;41.564;23.296;2023-04-24T03:53:38;9.48;;;8.48;;
21868;SDS011;11099;41.564;23.296;2023-04-24T03:56:06;9.88;;;8.60;;
21868;SDS011;11099;41.564;23.296;2023-04-24T03:58:31;9.82;;;7.97;;
21868;SDS011;11099;41.564;23.296;2023-04-24T04:00:57;10.13;;;7.38;;
21868;SDS011;11099;41.564;23.296;2023-04-24T04:03:23;8.63;;;7.82;;
21868;SDS011;11099;41.564;23.296;2023-04-24T04:05:48;9.55;;;7.47;;
21868;SDS011;11099;41.564;23.296;2023-04-24T04:08:14;8.20;;;7.40;;
21868;SDS011;11099;41.564;23.296;2023-04-24T04:10:40;8.63;;;7.80;;
21868;SDS011;11099;41.564;23.296;2023-04-24T04:13:05;8.40;;;7.60;;
21868;SDS011;11099;41.564;23.296;2023-04-24T04:15:31;14.20;;;9.60;;
21868;SDS011;11099;41.564;23.296;2023-04-24T04:17:57;10.15;;;8.88;;
21868;SDS011;11099;41.564;23.296;2023-04-24T04:20:22;23.08;;;14.38;;
21868;SDS011;11099;41.564;23.296;2023-04-24T04:22:48;10.88;;;9.73;;
21868;SDS011;11099;41.564;23.296;2023-04-24T04:25:13;13.40;;;10.73;;
21868;SDS011;11099;41.564;23.296;2023-04-24T04:27:39;26.40;;;18.23;;
21868;SDS011;11099;41.564;23.296;2023-04-24T04:30:07;24.30;;;16.98;;
21868;SDS011;11099;41.564;23.296;2023-04-24T04:32:34;18.60;;;12.60;;
21868;SDS011;11099;41.564;23.296;2023-04-24T04:35:00;12.40;;;9.70;;
21868;SDS011;11099;41.564;23.296;2023-04-24T04:37:31;27.02;;;13.93;;
21868;SDS011;11099;41.564;23.296;2023-04-24T04:40:00;29.80;;;18.90;;
21868;SDS011;11099;41.564;23.296;2023-04-24T04:42:26;31.02;;;18.65;;
21868;SDS011;11099;41.564;23.296;2023-04-24T04:44:53;26.45;;;17.55;;
21868;SDS011;11099;41.564;23.296;2023-04-24T04:47:20;39.45;;;24.17;;
21868;SDS011;11099;41.564;23.296;2023-04-24T04:49:49;31.50;;;23.52;;
21868;SDS011;11099;41.564;23.296;2023-04-24T04:52:16;32.85;;;23.15;;
21868;SDS011;11099;41.564;23.296;2023-04-24T04:54:42;26.00;;;19.80;;
21868;SDS011;11099;41.564;23.296;2023-04-24T04:57:08;26.38;;;17.95;;
21868;SDS011;11099;41.564;23.296;2023-04-24T04:59:34;18.95;;;14.93;;
21868;SDS011;11099;41.564;23.296;2023-04-24T05:01:59;10.80;;;8.68;;
21868;SDS011;11099;41.564;23.296;2023-04-24T05:04:25;13.93;;;10.40;;
21868;SDS011;11099;41.564;23.296;2023-04-24T05:06:51;12.38;;;10.52;;
21868;SDS011;11099;41.564;23.296;2023-04-24T05:09:17;22.60;;;16.13;;
21868;SDS011;11099;41.564;23.296;2023-04-24T05:11:43;16.83;;;14.80;;
21868;SDS011;11099;41.564;23.296;2023-04-24T05:14:08;17.35;;;12.52;;
21868;SDS011;11099;41.564;23.296;2023-04-24T05:16:34;23.80;;;16.67;;
21868;SDS011;11099;41.564;23.296;2023-04-24T05:19:00;23.80;;;17.90;;
21868;SDS011;11099;41.564;23.296;2023-04-24T05:21:25;26.38;;;16.20;;
21868;SDS011;11099;41.564;23.296;2023-04-24T05:23:51;24.05;;;16.85;;
21868;SDS011;11099;41.564;23.296;2023-04-24T05:26:17;21.23;;;15.48;;
21868;SDS011;11099;41.564;23.296;2023-04-24T05:28:42;21.88;;;13.02;;
21868;SDS011;11099;41.564;23.296;2023-04-24T05:31:08;20.73;;;13.73;;
21868;SDS011;11099;41.564;23.296;2023-04-24T05:33:33;20.05;;;12.52;;
21868;SDS011;11099;41.564;23.296;2023-04-24T05:35:59;13.25;;;10.70;;
21868;SDS011;11099;41.564;23.296;2023-04-24T05:38:25;13.73;;;12.05;;
21868;SDS011;11099;41.564;23.296;2023-04-24T05:40:51;18.38;;;13.63;;
21868;SDS011;11099;41.564;23.296;2023-04-24T05:43:16;20.77;;;13.85;;
21868;SDS011;11099;41.564;23.296;2023-04-24T05:45:42;19.40;;;12.70;;
21868;SDS011;11099;41.564;23.296;2023-04-24T05:48:07;16.73;;;12.27;;
21868;SDS011;11099;41.564;23.296;2023-04-24T05:50:33;15.15;;;11.88;;
21868;SDS011;11099;41.564;23.296;2023-04-24T05:52:58;15.32;;;11.32;;
21868;SDS011;11099;41.564;23.296;2023-04-24T05:55:24;17.55;;;12.30;;
21868;SDS011;11099;41.564;23.296;2023-04-24T05:57:50;13.48;;;11.18;;
21868;SDS011;11099;41.564;23.296;2023-04-24T06:00:16;13.23;;;11.80;;
21868;SDS011;11099;41.564;23.296;2023-04-24T06:02:44;19.70;;;15.95;;
21868;SDS011;11099;41.564;23.296;2023-04-24T06:05:10;15.95;;;11.30;;
21868;SDS011;11099;41.564;23.296;2023-04-24T06:07:36;20.02;;;14.13;;
21868;SDS011;11099;41.564;23.296;2023-04-24T06:10:01;22.85;;;15.15;;
21868;SDS011;11099;41.564;23.296;2023-04-24T06:12:27;18.77;;;14.95;;
21868;SDS011;11099;41.564;23.296;2023-04-24T06:14:53;16.48;;;12.10;;
21868;SDS011;11099;41.564;23.296;2023-04-24T06:17:20;13.45;;;10.02;;
21868;SDS011;11099;41.564;23.296;2023-04-24T06:19:46;11.45;;;10.23;;
21868;SDS011;11099;41.564;23.296;2023-04-24T06:22:11;11.32;;;10.20;;
21868;SDS011;11099;41.564;23.296;2023-04-24T06:24:37;10.45;;;6.55;;
21868;SDS011;11099;41.564;23.296;2023-04-24T06:27:02;10.32;;;6.43;;
21868;SDS011;11099;41.564;23.296;2023-04-24T06:29:28;7.68;;;6.07;;
21868;SDS011;11099;41.564;23.296;2023-04-24T06:31:53;9.35;;;5.95;;
21868;SDS011;11099;41.564;23.296;2023-04-24T06:34:18;6.95;;;5.28;;
21868;SDS011;11099;41.564;23.296;2023-04-24T06:36:44;7.13;;;5.03;;
21868;SDS011;11099;41.564;23.296;2023-04-24T06:39:10;5.65;;;4.82;;
21868;SDS011;11099;41.564;23.296;2023-04-24T06:41:35;5.38;;;4.75;;
21868;SDS011;11099;41.564;23.296;2023-04-24T06:44:01;5.60;;;5.10;;
21868;SDS011;11099;41.564;23.296;2023-04-24T06:46:26;6.97;;;4.82;;
21868;SDS011;11099;41.564;23.296;2023-04-24T06:48:55;5.15;;;4.60;;
21868;SDS011;11099;41.564;23.296;2023-04-24T06:51:24;6.05;;;4.72;;
21868;SDS011;11099;41.564;23.296;2023-04-24T06:53:53;6.70;;;5.03;;
21868;SDS011;11099;41.564;23.296;2023-04-24T06:56:21;8.20;;;5.28;;
21868;SDS011;11099;41.564;23.296;2023-04-24T06:58:47;7.47;;;5.60;;
21868;SDS011;11099;41.564;23.296;2023-04-24T07:01:13;6.32;;;4.95;;
21868;SDS011;11099;41.564;23.296;2023-04-24T07:03:38;7.85;;;5.00;;
21868;SDS011;11099;41.564;23.296;2023-04-24T07:06:04;8.90;;;5.10;;
21868;SDS011;11099;41.564;23.296;2023-04-24T07:08:30;8.93;;;5.47;;
21868;SDS011;11099;41.564;23.296;2023-04-24T07:10:56;6.28;;;4.68;;
21868;SDS011;11099;41.564;23.296;2023-04-24T07:13:22;12.55;;;7.28;;
21868;SDS011;11099;41.564;23.296;2023-04-24T07:15:48;5.18;;;4.63;;
21868;SDS011;11099;41.564;23.296;2023-04-24T07:18:18;5.55;;;5.05;;
21868;SDS011;11099;41.564;23.296;2023-04-24T07:20:44;5.72;;;4.80;;
21868;SDS011;11099;41.564;23.296;2023-04-24T07:23:10;5.15;;;4.65;;
21868;SDS011;11099;41.564;23.296;2023-04-24T07:25:36;9.70;;;5.30;;
21868;SDS011;11099;41.564;23.296;2023-04-24T07:28:01;8.50;;;5.30;;
21868;SDS011;11099;41.564;23.296;2023-04-24T07:30:27;8.20;;;5.22;;
21868;SDS011;11099;41.564;23.296;2023-04-24T07:32:54;5.38;;;4.80;;
21868;SDS011;11099;41.564;23.296;2023-04-24T07:35:20;7.38;;;5.10;;
21868;SDS011;11099;41.564;23.296;2023-04-24T07:37:46;6.70;;;6.00;;
21868;SDS011;11099;41.564;23.296;2023-04-24T07:40:12;6.30;;;5.65;;
21868;SDS011;11099;41.564;23.296;2023-04-24T07:42:38;8.23;;;5.50;;
21868;SDS011;11099;41.564;23.296;2023-04-24T07:45:04;8.13;;;6.00;;
21868;SDS011;11099;41.564;23.296;2023-04-24T07:47:30;6.03;;;5.43;;
21868;SDS011;11099;41.564;23.296;2023-04-24T07:49:56;7.20;;;5.68;;
21868;SDS011;11099;41.564;23.296;2023-04-24T07:52:22;10.07;;;6.60;;
21868;SDS011;11099;41.564;23.296;2023-04-24T07:54:50;6.85;;;6.13;;
21868;SDS011;11099;41.564;23.296;2023-04-24T07:57:17;9.52;;;6.60;;
21868;SDS011;11099;41.564;23.296;2023-04-24T07:59:43;7.93;;;5.82;;
21868;SDS011;11099;41.564;23.296;2023-04-24T08:02:09;9.13;;;5.80;;
21868;SDS011;11099;41.564;23.296;2023-04-24T08:04:36;6.40;;;5.80;;
21868;SDS011;11099;41.564;23.296;2023-04-24T08:07:01;6.57;;;5.88;;
21868;SDS011;11099;41.564;23.296;2023-04-24T08:09:27;8.68;;;6.03;;
21868;SDS011;11099;41.564;23.296;2023-04-24T08:11:52;7.18;;;6.57;;
21868;SDS011;11099;41.564;23.296;2023-04-24T08:14:18;9.40;;;6.35;;
21868;SDS011;11099;41.564;23.296;2023-04-24T08:16:44;7.22;;;6.53;;
21868;SDS011;11099;41.564;23.296;2023-04-24T08:19:10;8.60;;;7.38;;
21868;SDS011;11099;41.564;23.296;2023-04-24T08:21:35;9.60;;;6.75;;
21868;SDS011;11099;41.564;23.296;2023-04-24T08:24:01;7.32;;;6.63;;
21868;SDS011;11099;41.564;23.296;2023-04-24T08:26:30;12.60;;;7.38;;
21868;SDS011;11099;41.564;23.296;2023-04-24T08:28:55;6.55;;;5.55;;
21868;SDS011;11099;41.564;23.296;2023-04-24T08:31:22;6.22;;;5.63;;
21868;SDS011;11099;41.564;23.296;2023-04-24T08:33:51;6.57;;;5.10;;
21868;SDS011;11099;41.564;23.296;2023-04-24T08:36:16;6.20;;;5.60;;
21868;SDS011;11099;41.564;23.296;2023-04-24T08:38:42;5.93;;;5.10;;
21868;SDS011;11099;41.564;23.296;2023-04-24T08:41:07;5.28;;;4.70;;
21868;SDS011;11099;41.564;23.296;2023-04-24T08:43:34;5.55;;;4.68;;
21868;SDS011;11099;41.564;23.296;2023-04-24T08:46:01;6.55;;;5.20;;
21868;SDS011;11099;41.564;23.296;2023-04-24T08:48:28;4.85;;;4.38;;
21868;SDS011;11099;41.564;23.296;2023-04-24T08:50:55;5.13;;;4.22;;
21868;SDS011;11099;41.564;23.296;2023-04-24T08:53:22;6.80;;;4.88;;
21868;SDS011;11099;41.564;23.296;2023-04-24T08:55:49;6.88;;;4.90;;
21868;SDS011;11099;41.564;23.296;2023-04-24T08:58:16;5.03;;;4.50;;
21868;SDS011;11099;41.564;23.296;2023-04-24T09:00:43;6.85;;;4.55;;
21868;SDS011;11099;41.564;23.296;2023-04-24T09:03:13;5.15;;;4.25;;
21868;SDS011;11099;41.564;23.296;2023-04-24T09:05:41;5.70;;;4.35;;
21868;SDS011;11099;41.564;23.296;2023-04-24T09:08:12;4.63;;;4.28;;
21868;SDS011;11099;41.564;23.296;2023-04-24T09:10:41;6.75;;;4.88;;
21868;SDS011;11099;41.564;23.296;2023-04-24T09:13:07;7.13;;;4.80;;
21868;SDS011;11099;41.564;23.296;2023-04-24T09:15:36;4.80;;;4.40;;
21868;SDS011;11099;41.564;23.296;2023-04-24T09:18:05;5.70;;;4.85;;
21868;SDS011;11099;41.564;23.296;2023-04-24T09:20:31;6.28;;;5.22;;
21868;SDS011;11099;41.564;23.296;2023-04-24T09:22:58;7.10;;;4.85;;
21868;SDS011;11099;41.564;23.296;2023-04-24T09:25:32;4.82;;;4.47;;
21868;SDS011;11099;41.564;23.296;2023-04-24T09:28:02;5.90;;;4.80;;
21868;SDS011;11099;41.564;23.296;2023-04-24T09:30:28;6.15;;;5.15;;
21868;SDS011;11099;41.564;23.296;2023-04-24T09:33:13;4.75;;;4.35;;
21868;SDS011;11099;41.564;23.296;2023-04-24T09:35:41;7.35;;;4.85;;
21868;SDS011;11099;41.564;23.296;2023-04-24T09:38:08;4.72;;;4.32;;
21868;SDS011;11099;41.564;23.296;2023-04-24T09:40:34;5.97;;;4.43;;
21868;SDS011;11099;41.564;23.296;2023-04-24T09:43:00;4.90;;;4.40;;
21868;SDS011;11099;41.564;23.296;2023-04-24T09:45:37;4.38;;;4.00;;
21868;SDS011;11099;41.564;23.296;2023-04-24T09:48:04;5.10;;;4.57;;
21868;SDS011;11099;41.564;23.296;2023-04-24T09:50:31;4.43;;;4.03;;
21868;SDS011;11099;41.564;23.296;2023-04-24T09:53:01;4.63;;;4.15;;
21868;SDS011;11099;41.564;23.296;2023-04-24T09:55:27;7.13;;;4.57;;
21868;SDS011;11099;41.564;23.296;2023-04-24T09:57:56;7.80;;;4.03;;
21868;SDS011;11099;41.564;23.296;2023-04-24T10:00:26;4.93;;;4.32;;
21868;SDS011;11099;41.564;23.296;2023-04-24T10:02:56;4.65;;;4.28;;
21868;SDS011;11099;41.564;23.296;2023-04-24T10:05:31;6.93;;;4.22;;
21868;SDS011;11099;41.564;23.296;2023-04-24T10:08:01;4.88;;;4.22;;
21868;SDS011;11099;41.564;23.296;2023-04-24T10:10:29;5.20;;;4.60;;
21868;SDS011;11099;41.564;23.296;2023-04-24T10:12:56;5.82;;;5.00;;
21868;SDS011;11099;41.564;23.296;2023-04-24T10:15:22;5.88;;;4.53;;
21868;SDS011;11099;41.564;23.296;2023-04-24T10:17:49;4.60;;;4.20;;
21868;SDS011;11099;41.564;23.296;2023-04-24T10:20:22;5.30;;;4.50;;
21868;SDS011;11099;41.564;23.296;2023-04-24T10:22:50;4.65;;;4.35;;
21868;SDS011;11099;41.564;23.296;2023-04-24T10:25:21;4.88;;;4.38;;
21868;SDS011;11099;41.564;23.296;2023-04-24T10:27:54;4.55;;;4.15;;
21868;SDS011;11099;41.564;23.296;2023-04-24T10:30:25;8.25;;;4.75;;
21868;SDS011;11099;41.564;23.296;2023-04-24T10:33:04;4.97;;;4.57;;
21868;SDS011;11099;41.564;23.296;2023-04-24T10:35:32;5.32;;;4.57;;
21868;SDS011;11099;41.564;23.296;2023-04-24T10:38:03;5.88;;;4.43;;
21868;SDS011;11099;41.564;23.296;2023-04-24T10:40:32;4.80;;;4.40;;
21868;SDS011;11099;41.564;23.296;2023-04-24T10:43:01;4.95;;;4.55;;
21868;SDS011;11099;41.564;23.296;2023-04-24T10:45:30;5.10;;;4.75;;
21868;SDS011;11099;41.564;23.296;2023-04-24T10:50:29;5.68;;;4.60;;
21868;SDS011;11099;41.564;23.296;2023-04-24T10:53:07;4.45;;;4.00;;
21868;SDS011;11099;41.564;23.296;2023-04-24T10:58:12;6.45;;;4.78;;
21868;SDS011;11099;41.564;23.296;2023-04-24T11:00:40;5.10;;;4.60;;
21868;SDS011;11099;41.564;23.296;2023-04-24T11:03:07;4.65;;;4.35;;
21868;SDS011;11099;41.564;23.296;2023-04-24T11:13:26;6.45;;;4.85;;
21868;SDS011;11099;41.564;23.296;2023-04-24T11:16:29;6.75;;;4.45;;
21868;SDS011;11099;41.564;23.296;2023-04-24T11:19:02;5.15;;;4.65;;
21868;SDS011;11099;41.564;23.296;2023-04-24T11:32:17;4.95;;;4.43;;
21868;SDS011;11099;41.564;23.296;2023-04-24T11:34:51;4.78;;;4.38;;
21868;SDS011;11099;41.564;23.296;2023-04-24T11:37:18;4.90;;;4.32;;
21868;SDS011;11099;41.564;23.296;2023-04-24T11:39:44;4.90;;;4.40;;
21868;SDS011;11099;41.564;23.296;2023-04-24T11:42:09;5.68;;;4.97;;
21868;SDS011;11099;41.564;23.296;2023-04-24T11:44:35;7.75;;;4.50;;
21868;SDS011;11099;41.564;23.296;2023-04-24T11:47:04;4.55;;;4.13;;
21868;SDS011;11099;41.564;23.296;2023-04-24T11:49:32;4.95;;;4.50;;
21868;SDS011;11099;41.564;23.296;2023-04-24T11:51:57;7.45;;;4.60;;
21868;SDS011;11099;41.564;23.296;2023-04-24T11:54:25;4.97;;;4.47;;
21868;SDS011;11099;41.564;23.296;2023-04-24T11:56:50;7.43;;;4.40;;
21868;SDS011;11099;41.564;23.296;2023-04-24T11:59:16;4.97;;;4.57;;
21868;SDS011;11099;41.564;23.296;2023-04-24T12:01:48;4.90;;;4.50;;
21868;SDS011;11099;41.564;23.296;2023-04-24T12:04:15;5.93;;;4.65;;
21868;SDS011;11099;41.564;23.296;2023-04-24T12:09:48;5.50;;;3.45;;
21868;SDS011;11099;41.564;23.296;2023-04-24T12:12:19;5.00;;;4.57;;
21868;SDS011;11099;41.564;23.296;2023-04-24T12:14:49;5.55;;;4.88;;
21868;SDS011;11099;41.564;23.296;2023-04-24T12:17:16;5.82;;;4.50;;
21868;SDS011;11099;41.564;23.296;2023-04-24T12:19:46;4.90;;;4.40;;
21868;SDS011;11099;41.564;23.296;2023-04-24T12:22:12;5.10;;;4.70;;
21868;SDS011;11099;41.564;23.296;2023-04-24T12:27:22;4.72;;;4.13;;
21868;SDS011;11099;41.564;23.296;2023-04-24T12:29:51;5.18;;;4.68;;
21868;SDS011;11099;41.564;23.296;2023-04-24T12:32:18;4.93;;;4.43;;
21868;SDS011;11099;41.564;23.296;2023-04-24T12:34:44;4.45;;;4.15;;
21868;SDS011;11099;41.564;23.296;2023-04-24T12:37:10;5.05;;;4.65;;
21868;SDS011;11099;41.564;23.296;2023-04-24T12:39:36;4.78;;;4.38;;
21868;SDS011;11099;41.564;23.296;2023-04-24T12:42:02;5.72;;;4.65;;
21868;SDS011;11099;41.564;23.296;2023-04-24T12:44:34;5.07;;;4.63;;
21868;SDS011;11099;41.564;23.296;2023-04-24T12:47:01;5.07;;;4.68;;
21868;SDS011;11099;41.564;23.296;2023-04-24T12:49:27;4.78;;;4.10;;
21868;SDS011;11099;41.564;23.296;2023-04-24T12:51:55;4.85;;;4.43;;
21868;SDS011;11099;41.564;23.296;2023-04-24T12:54:21;4.75;;;4.35;;
21868;SDS011;11099;41.564;23.296;2023-04-24T12:56:47;4.90;;;4.13;;
21868;SDS011;11099;41.564;23.296;2023-04-24T12:59:12;5.30;;;4.82;;
21868;SDS011;11099;41.564;23.296;2023-04-24T13:01:38;5.35;;;4.85;;
21868;SDS011;11099;41.564;23.296;2023-04-24T13:04:04;7.78;;;4.85;;
21868;SDS011;11099;41.564;23.296;2023-04-24T13:06:30;6.07;;;4.80;;
21868;SDS011;11099;41.564;23.296;2023-04-24T13:08:56;5.82;;;5.20;;
21868;SDS011;11099;41.564;23.296;2023-04-24T13:11:23;7.32;;;5.35;;
21868;SDS011;11099;41.564;23.296;2023-04-24T13:13:49;7.03;;;4.78;;
21868;SDS011;11099;41.564;23.296;2023-04-24T13:16:14;5.32;;;4.82;;
21868;SDS011;11099;41.564;23.296;2023-04-24T13:18:40;8.27;;;4.80;;
21868;SDS011;11099;41.564;23.296;2023-04-24T13:21:05;6.00;;;5.07;;
21868;SDS011;11099;41.564;23.296;2023-04-24T13:23:31;6.25;;;5.65;;
21868;SDS011;11099;41.564;23.296;2023-04-24T13:25:57;7.53;;;6.55;;
21868;SDS011;11099;41.564;23.296;2023-04-24T13:28:23;6.43;;;5.82;;
21868;SDS011;11099;41.564;23.296;2023-04-24T13:30:51;5.78;;;5.22;;
21868;SDS011;11099;41.564;23.296;2023-04-24T13:33:18;8.15;;;7.35;;
21868;SDS011;11099;41.564;23.296;2023-04-24T13:35:43;7.50;;;6.40;;
21868;SDS011;11099;41.564;23.296;2023-04-24T13:38:09;14.45;;;11.85;;
21868;SDS011;11099;41.564;23.296;2023-04-24T13:40:34;10.95;;;9.52;;
21868;SDS011;11099;41.564;23.296;2023-04-24T13:43:00;5.82;;;5.10;;
21868;SDS011;11099;41.564;23.296;2023-04-24T13:45:26;6.93;;;6.35;;
21868;SDS011;11099;41.564;23.296;2023-04-24T13:47:52;7.03;;;6.30;;
21868;SDS011;11099;41.564;23.296;2023-04-24T13:50:21;5.63;;;5.13;;
21868;SDS011;11099;41.564;23.296;2023-04-24T13:52:47;6.13;;;5.63;;
21868;SDS011;11099;41.564;23.296;2023-04-24T13:55:13;6.30;;;5.78;;
21868;SDS011;11099;41.564;23.296;2023-04-24T13:57:38;7.95;;;5.65;;
21868;SDS011;11099;41.564;23.296;2023-04-24T14:00:04;6.18;;;5.60;;
21868;SDS011;11099;41.564;23.296;2023-04-24T14:02:31;9.20;;;5.30;;
21868;SDS011;11099;41.564;23.296;2023-04-24T14:04:57;6.40;;;5.80;;
21868;SDS011;11099;41.564;23.296;2023-04-24T14:07:23;6.82;;;6.20;;
21868;SDS011;11099;41.564;23.296;2023-04-24T14:09:48;7.78;;;5.88;;
21868;SDS011;11099;41.564;23.296;2023-04-24T14:12:14;5.88;;;5.32;;
21868;SDS011;11099;41.564;23.296;2023-04-24T14:14:43;6.05;;;5.45;;
21868;SDS011;11099;41.564;23.296;2023-04-24T14:17:09;7.13;;;6.43;;
21868;SDS011;11099;41.564;23.296;2023-04-24T14:19:35;6.90;;;6.30;;
21868;SDS011;11099;41.564;23.296;2023-04-24T14:22:00;8.13;;;5.35;;
21868;SDS011;11099;41.564;23.296;2023-04-24T14:24:26;7.10;;;5.40;;
21868;SDS011;11099;41.564;23.296;2023-04-24T14:26:51;8.45;;;6.15;;
21868;SDS011;11099;41.564;23.296;2023-04-24T14:29:17;6.32;;;5.72;;
21868;SDS011;11099;41.564;23.296;2023-04-24T14:31:42;8.15;;;6.57;;
21868;SDS011;11099;41.564;23.296;2023-04-24T14:34:08;10.88;;;6.88;;
21868;SDS011;11099;41.564;23.296;2023-04-24T14:36:34;6.63;;;5.97;;
21868;SDS011;11099;41.564;23.296;2023-04-24T14:39:00;7.30;;;6.60;;
21868;SDS011;11099;41.564;23.296;2023-04-24T14:41:30;7.05;;;6.28;;
21868;SDS011;11099;41.564;23.296;2023-04-24T14:43:56;13.23;;;7.10;;
21868;SDS011;11099;41.564;23.296;2023-04-24T14:46:21;9.48;;;6.15;;
21868;SDS011;11099;41.564;23.296;2023-04-24T14:48:47;10.20;;;6.43;;
21868;SDS011;11099;41.564;23.296;2023-04-24T14:51:12;11.00;;;7.10;;
21868;SDS011;11099;41.564;23.296;2023-04-24T14:53:38;9.32;;;7.25;;
21868;SDS011;11099;41.564;23.296;2023-04-24T14:56:03;7.82;;;6.68;;